createdAt,value
2023-04-29T00:01:05.311Z,7.57
2023-04-29T00:03:34.151Z,9.77
2023-04-29T00:06:03.584Z,7.70
2023-04-29T00:08:33.631Z,7.63
2023-04-29T00:11:02.329Z,8.07
2023-04-29T00:13:30.887Z,7.97
2023-04-29T00:15:59.444Z,10.35
2023-04-29T00:18:28.071Z,7.82
2023-04-29T00:20:58.470Z,9.93
2023-04-29T00:23:27.014Z,8.95
2023-04-29T00:25:57.312Z,8.95
2023-04-29T00:28:25.887Z,11.10
2023-04-29T00:30:55.747Z,8.90
2023-04-29T00:33:24.619Z,8.00
2023-04-29T00:35:53.211Z,10.57
2023-04-29T00:38:22.138Z,8.88
2023-04-29T00:40:50.807Z,8.63
2023-04-29T00:43:21.590Z,11.50
2023-04-29T00:45:50.952Z,8.25
2023-04-29T00:48:19.545Z,9.95
2023-04-29T00:50:48.134Z,13.23
2023-04-29T00:53:16.698Z,12.75
2023-04-29T00:55:45.790Z,10.75
2023-04-29T00:58:14.972Z,11.95
2023-04-29T01:00:47.082Z,12.25
2023-04-29T01:03:16.466Z,14.30
2023-04-29T01:05:51.521Z,15.43
2023-04-29T01:08:30.476Z,15.68
2023-04-29T01:11:09.016Z,11.93
2023-04-29T01:13:44.969Z,13.05
2023-04-29T01:16:22.582Z,13.05
2023-04-29T01:18:56.310Z,11.52
2023-04-29T01:21:32.057Z,12.55
2023-04-29T01:24:02.416Z,11.95
2023-04-29T01:26:35.816Z,12.48
2023-04-29T01:29:28.852Z,13.02
2023-04-29T01:32:09.116Z,13.27
2023-04-29T01:34:48.114Z,11.93
2023-04-29T01:37:23.787Z,13.63
2023-04-29T01:40:02.555Z,12.30
2023-04-29T01:42:40.430Z,11.40
2023-04-29T01:45:17.001Z,10.90
2023-04-29T01:47:47.615Z,11.88
2023-04-29T01:50:23.384Z,12.45
2023-04-29T01:52:52.234Z,10.95
2023-04-29T01:55:22.924Z,10.43
2023-04-29T01:58:08.257Z,9.65
2023-04-29T02:01:00.826Z,11.52
2023-04-29T02:03:32.252Z,11.52
2023-04-29T02:06:02.646Z,9.55
2023-04-29T02:08:31.199Z,10.13
2023-04-29T02:11:01.559Z,10.57
2023-04-29T02:13:48.784Z,11.63
2023-04-29T02:16:18.902Z,9.88
2023-04-29T02:19:14.742Z,12.02
2023-04-29T02:21:44.082Z,12.48
2023-04-29T02:24:15.690Z,17.73
2023-04-29T02:26:45.740Z,15.55
2023-04-29T02:29:15.010Z,17.05
2023-04-29T02:31:45.692Z,17.23
2023-04-29T02:34:14.754Z,19.83
2023-04-29T02:36:43.772Z,18.63
2023-04-29T02:39:12.764Z,20.40
2023-04-29T02:41:42.210Z,21.73
2023-04-29T02:44:14.821Z,21.40
2023-04-29T02:46:45.804Z,20.67
2023-04-29T02:49:14.827Z,22.10
2023-04-29T02:51:43.435Z,23.48
2023-04-29T02:54:12.729Z,21.48
2023-04-29T02:56:41.327Z,22.80
2023-04-29T02:59:10.035Z,22.83
2023-04-29T03:01:40.241Z,22.35
2023-04-29T03:04:09.295Z,26.08
2023-04-29T03:06:38.070Z,23.95
2023-04-29T03:09:06.919Z,27.33
2023-04-29T03:11:35.513Z,28.17
2023-04-29T03:14:04.073Z,25.58
2023-04-29T03:16:32.856Z,26.65
2023-04-29T03:19:03.029Z,27.77
2023-04-29T03:21:31.618Z,26.25
2023-04-29T03:24:00.582Z,27.48
2023-04-29T03:26:34.690Z,30.02
2023-04-29T03:29:05.179Z,24.17
2023-04-29T03:31:35.020Z,26.38
2023-04-29T03:34:04.996Z,23.95
2023-04-29T03:36:37.104Z,26.38
2023-04-29T03:39:09.081Z,26.67
2023-04-29T03:41:37.981Z,27.10
2023-04-29T03:44:06.581Z,29.38
2023-04-29T03:46:35.308Z,27.55
2023-04-29T03:49:05.770Z,26.92
2023-04-29T03:51:34.426Z,26.23
2023-04-29T03:54:15.451Z,26.48
2023-04-29T03:56:44.288Z,33.38
2023-04-29T03:59:14.079Z,27.42
2023-04-29T04:01:43.524Z,33.97
2023-04-29T04:04:15.580Z,33.75
2023-04-29T04:06:51.537Z,29.90
2023-04-29T04:09:22.386Z,32.50
2023-04-29T04:11:51.108Z,33.10
2023-04-29T04:14:20.184Z,30.52
2023-04-29T04:16:50.660Z,36.78
2023-04-29T04:19:20.943Z,36.35
2023-04-29T04:21:49.599Z,37.03
2023-04-29T04:24:18.206Z,37.63
2023-04-29T04:26:46.895Z,39.58
2023-04-29T04:29:30.844Z,43.63
2023-04-29T04:32:02.721Z,39.83
2023-04-29T04:34:33.803Z,40.95
2023-04-29T04:37:04.037Z,44.83
2023-04-29T04:39:33.644Z,47.53
2023-04-29T04:42:03.200Z,49.85
2023-04-29T04:44:34.297Z,48.38
2023-04-29T04:47:08.083Z,47.72
2023-04-29T04:49:53.978Z,51.00
2023-04-29T04:52:23.927Z,49.50
2023-04-29T04:55:04.598Z,53.03
2023-04-29T04:57:37.067Z,55.05
2023-04-29T05:00:06.999Z,55.78
2023-04-29T05:02:35.958Z,54.60
2023-04-29T05:05:06.765Z,51.17
2023-04-29T05:07:37.969Z,59.28
2023-04-29T05:10:08.524Z,58.08
2023-04-29T05:12:43.376Z,55.35
2023-04-29T05:15:12.660Z,62.55
2023-04-29T05:17:41.350Z,59.10
2023-04-29T05:20:12.384Z,61.63
2023-04-29T05:22:40.996Z,55.67
2023-04-29T05:25:10.399Z,61.47
2023-04-29T05:27:39.239Z,62.05
2023-04-29T05:30:12.189Z,59.83
2023-04-29T05:32:40.941Z,54.30
2023-04-29T05:35:14.341Z,54.55
2023-04-29T05:37:43.172Z,48.58
2023-04-29T05:40:27.952Z,47.70
2023-04-29T05:43:09.235Z,43.78
2023-04-29T05:45:39.011Z,42.78
2023-04-29T05:48:07.967Z,39.10
2023-04-29T05:50:37.890Z,41.92
2023-04-29T05:53:06.807Z,44.92
2023-04-29T05:55:35.639Z,44.58
2023-04-29T05:58:04.233Z,45.00
2023-04-29T06:00:32.884Z,44.33
2023-04-29T06:03:10.937Z,44.75
2023-04-29T06:05:42.034Z,43.33
2023-04-29T06:08:35.410Z,39.45
2023-04-29T06:11:06.699Z,42.10
2023-04-29T06:13:35.634Z,39.78
2023-04-29T06:16:04.572Z,47.30
2023-04-29T06:18:35.291Z,42.03
2023-04-29T06:21:05.561Z,43.35
2023-04-29T06:23:34.204Z,42.20
2023-04-29T06:26:07.948Z,40.28
2023-04-29T06:28:36.740Z,36.60
2023-04-29T06:31:05.573Z,41.13
2023-04-29T06:33:34.776Z,35.10
2023-04-29T06:36:03.443Z,34.90
2023-04-29T06:39:08.913Z,33.92
2023-04-29T06:42:10.232Z,34.17
2023-04-29T06:44:54.199Z,32.08
2023-04-29T06:47:22.931Z,29.35
2023-04-29T06:50:09.267Z,31.75
2023-04-29T06:52:38.480Z,31.10
2023-04-29T06:55:11.150Z,29.40
2023-04-29T06:57:40.678Z,29.20
2023-04-29T07:00:10.249Z,27.48
2023-04-29T07:02:39.886Z,32.40
2023-04-29T07:05:09.536Z,27.70
2023-04-29T07:07:39.523Z,29.90
2023-04-29T07:10:10.546Z,27.58
2023-04-29T07:12:39.113Z,25.25
2023-04-29T07:15:08.782Z,25.70
2023-04-29T07:17:37.612Z,24.17
2023-04-29T07:20:07.821Z,25.20
2023-04-29T07:22:36.339Z,23.90
2023-04-29T07:25:05.335Z,22.25
2023-04-29T07:27:35.999Z,24.13
2023-04-29T07:30:05.157Z,24.13
2023-04-29T07:32:33.876Z,26.85
2023-04-29T07:35:06.218Z,26.25
2023-04-29T07:37:34.862Z,22.77
2023-04-29T07:40:03.603Z,22.45
2023-04-29T07:42:32.218Z,23.70
2023-04-29T07:45:02.766Z,23.30
2023-04-29T07:47:31.429Z,24.42
2023-04-29T07:50:00.303Z,21.98
2023-04-29T07:52:29.048Z,22.30
2023-04-29T07:54:57.696Z,23.73
2023-04-29T07:57:26.258Z,23.63
2023-04-29T07:59:55.496Z,22.08
2023-04-29T08:02:25.636Z,18.60
2023-04-29T08:04:59.145Z,22.67
2023-04-29T08:07:28.162Z,21.63
2023-04-29T08:09:56.770Z,17.92
2023-04-29T08:12:25.522Z,20.08
2023-04-29T08:14:54.249Z,18.52
2023-04-29T08:17:25.337Z,20.77
2023-04-29T08:19:53.909Z,20.42
2023-04-29T08:22:22.405Z,19.98
2023-04-29T08:24:51.270Z,17.55
2023-04-29T08:27:21.394Z,19.58
2023-04-29T08:29:49.905Z,19.90
2023-04-29T08:32:32.801Z,20.33
2023-04-29T08:35:01.746Z,17.10
2023-04-29T08:37:30.256Z,19.25
2023-04-29T08:39:58.919Z,18.48
2023-04-29T08:42:34.816Z,18.20
2023-04-29T08:45:04.659Z,17.63
2023-04-29T08:47:35.140Z,16.40
2023-04-29T08:50:05.549Z,18.15
2023-04-29T08:52:34.320Z,18.05
2023-04-29T08:55:03.438Z,18.40
2023-04-29T08:57:39.492Z,20.27
2023-04-29T09:00:10.535Z,17.00
2023-04-29T09:02:46.940Z,16.90
2023-04-29T09:05:15.512Z,17.90
2023-04-29T09:07:45.425Z,20.70
2023-04-29T09:10:14.941Z,16.67
2023-04-29T09:12:43.483Z,19.95
2023-04-29T09:15:12.420Z,19.30
2023-04-29T09:17:46.769Z,17.92
2023-04-29T09:20:29.032Z,19.17
2023-04-29T09:22:59.113Z,20.45
2023-04-29T09:25:28.155Z,21.20
2023-04-29T09:27:57.357Z,19.25
2023-04-29T09:30:26.696Z,17.70
2023-04-29T09:33:08.966Z,20.02
2023-04-29T09:35:38.054Z,18.10
2023-04-29T09:38:11.894Z,17.48
2023-04-29T09:40:57.296Z,17.35
2023-04-29T09:43:27.998Z,17.40
2023-04-29T09:45:56.952Z,16.58
2023-04-29T09:48:33.825Z,20.80
2023-04-29T09:51:03.873Z,19.00
2023-04-29T09:53:33.366Z,17.85
2023-04-29T09:56:03.939Z,17.45
2023-04-29T09:58:37.328Z,21.73
2023-04-29T10:01:07.393Z,16.15
2023-04-29T10:03:39.519Z,14.90
2023-04-29T10:06:09.335Z,17.95
2023-04-29T10:08:38.304Z,16.85
2023-04-29T10:11:08.214Z,15.98
2023-04-29T10:13:38.863Z,14.45
2023-04-29T10:16:18.820Z,18.27
2023-04-29T10:18:53.167Z,15.00
2023-04-29T10:21:25.784Z,15.70
2023-04-29T10:23:57.290Z,19.23
2023-04-29T10:26:29.347Z,17.65
2023-04-29T10:29:00.080Z,17.55
2023-04-29T10:31:30.172Z,19.38
2023-04-29T10:34:01.663Z,21.65
2023-04-29T10:36:31.414Z,19.63
2023-04-29T10:39:01.879Z,18.08
2023-04-29T10:41:35.629Z,27.83
2023-04-29T10:44:06.084Z,24.55
2023-04-29T10:46:34.700Z,25.40
2023-04-29T10:49:06.776Z,24.00
2023-04-29T10:51:36.686Z,22.35
2023-04-29T10:54:09.111Z,23.52
2023-04-29T10:56:42.665Z,21.83
2023-04-29T10:59:13.426Z,22.55
2023-04-29T11:01:47.340Z,24.30
2023-04-29T11:04:18.289Z,24.25
2023-04-29T11:06:48.855Z,23.48
2023-04-29T11:09:22.094Z,25.08
2023-04-29T11:12:02.873Z,24.92
2023-04-29T11:14:33.979Z,28.38
2023-04-29T11:17:04.907Z,27.45
2023-04-29T11:19:36.618Z,24.88
2023-04-29T11:22:11.781Z,29.25
2023-04-29T11:24:51.275Z,27.38
2023-04-29T11:27:22.977Z,26.45
2023-04-29T11:29:52.162Z,27.15
2023-04-29T11:32:23.088Z,25.85
2023-04-29T11:34:53.546Z,25.88
2023-04-29T11:37:23.826Z,28.05
2023-04-29T11:39:53.163Z,28.73
2023-04-29T11:42:22.751Z,31.80
2023-04-29T11:44:56.909Z,33.70
2023-04-29T11:47:29.216Z,34.78
2023-04-29T11:50:05.802Z,35.15
2023-04-29T11:52:34.622Z,34.03
2023-04-29T11:55:03.953Z,29.25
2023-04-29T11:57:32.611Z,24.98
2023-04-29T12:00:01.701Z,27.10
2023-04-29T12:02:31.644Z,27.05
2023-04-29T12:05:01.519Z,26.40
2023-04-29T12:07:32.450Z,26.30
2023-04-29T12:10:01.125Z,24.50
2023-04-29T12:12:31.710Z,22.27
2023-04-29T12:15:00.472Z,22.77
2023-04-29T12:17:29.310Z,21.50
2023-04-29T12:19:58.374Z,23.63
2023-04-29T12:22:34.092Z,26.27
2023-04-29T12:25:05.411Z,23.10
2023-04-29T12:27:34.897Z,25.58
2023-04-29T12:30:03.717Z,28.00
2023-04-29T12:32:34.755Z,29.98
2023-04-29T12:35:03.491Z,31.38
2023-04-29T12:37:35.307Z,27.70
2023-04-29T12:40:05.103Z,31.75
2023-04-29T12:42:34.779Z,36.17
2023-04-29T12:45:04.166Z,37.60
2023-04-29T12:47:34.872Z,42.33
2023-04-29T12:50:03.913Z,46.47
2023-04-29T12:52:35.943Z,47.58
2023-04-29T12:55:06.566Z,51.13
2023-04-29T12:57:35.118Z,51.58
2023-04-29T13:00:03.904Z,50.28
2023-04-29T13:02:32.851Z,49.92
2023-04-29T13:05:01.919Z,44.20
2023-04-29T13:07:30.826Z,42.63
2023-04-29T13:10:02.220Z,38.60
2023-04-29T13:12:30.859Z,40.67
2023-04-29T13:14:59.935Z,38.70
2023-04-29T13:17:28.882Z,42.97
2023-04-29T13:19:57.430Z,44.65
2023-04-29T13:22:26.017Z,38.50
2023-04-29T13:24:55.064Z,40.30
2023-04-29T13:27:25.560Z,43.25
2023-04-29T13:29:54.074Z,55.97
2023-04-29T13:32:24.700Z,56.08
2023-04-29T13:34:53.545Z,54.75
2023-04-29T13:37:22.273Z,46.45
2023-04-29T13:39:57.005Z,49.88
2023-04-29T13:42:27.803Z,53.28
2023-04-29T13:44:57.370Z,44.63
2023-04-29T13:47:29.933Z,54.13
2023-04-29T13:50:36.964Z,58.53
2023-04-29T14:01:01.462Z,63.30
2023-04-29T14:03:14.277Z,60.42
2023-04-29T14:05:43.382Z,68.35
2023-04-29T14:08:12.207Z,71.32
2023-04-29T14:10:41.294Z,65.30
2023-04-29T14:13:11.288Z,66.95
2023-04-29T14:15:39.923Z,72.60
2023-04-29T14:18:09.620Z,70.95
2023-04-29T14:20:38.244Z,78.75
2023-04-29T14:23:06.953Z,69.82
2023-04-29T14:25:35.592Z,73.63
2023-04-29T14:28:04.372Z,70.32
2023-04-29T14:30:34.483Z,72.57
2023-04-29T14:33:03.286Z,70.97
2023-04-29T14:35:32.436Z,71.13
2023-04-29T14:38:01.071Z,69.50
2023-04-29T14:40:29.808Z,61.47
2023-04-29T14:42:58.375Z,68.70
2023-04-29T14:45:26.922Z,49.80
2023-04-29T14:47:57.045Z,51.40
2023-04-29T14:50:25.957Z,57.00
2023-04-29T14:52:57.744Z,55.33
2023-04-29T14:55:26.741Z,52.08
2023-04-29T14:57:55.335Z,53.35
2023-04-29T15:00:23.883Z,49.63
2023-04-29T15:02:55.484Z,46.90
2023-04-29T15:05:25.663Z,49.38
2023-04-29T15:07:54.269Z,44.03
2023-04-29T15:10:23.238Z,39.63
2023-04-29T15:12:52.509Z,41.58
2023-04-29T15:15:21.701Z,37.03
2023-04-29T15:17:50.677Z,41.50
2023-04-29T15:20:19.410Z,32.28
2023-04-29T15:22:49.382Z,34.92
2023-04-29T15:25:18.085Z,39.55
2023-04-29T15:27:47.277Z,35.05
2023-04-29T15:30:16.600Z,35.88
2023-04-29T15:32:45.144Z,36.45
2023-04-29T15:35:13.808Z,36.38
2023-04-29T15:37:42.340Z,43.47
2023-04-29T15:40:13.353Z,45.05
2023-04-29T15:42:41.970Z,43.05
2023-04-29T15:45:11.696Z,39.88
2023-04-29T15:47:40.263Z,45.13
2023-04-29T15:50:10.446Z,46.78
2023-04-29T15:52:39.077Z,43.55
2023-04-29T15:55:08.488Z,40.17
2023-04-29T15:57:41.209Z,39.80
2023-04-29T16:00:11.267Z,43.88
2023-04-29T16:02:39.828Z,39.38
2023-04-29T16:05:09.181Z,40.63
2023-04-29T16:07:37.826Z,45.45
2023-04-29T16:10:07.146Z,40.92
2023-04-29T16:12:35.679Z,39.65
2023-04-29T16:15:08.568Z,37.10
2023-04-29T16:17:37.313Z,35.00
2023-04-29T16:20:06.771Z,38.03
2023-04-29T16:22:35.353Z,37.83
2023-04-29T16:25:04.186Z,39.05
2023-04-29T16:27:32.875Z,38.13
2023-04-29T16:30:01.567Z,38.47
2023-04-29T16:32:33.372Z,35.30
2023-04-29T16:35:02.108Z,35.15
2023-04-29T16:37:30.719Z,36.65
2023-04-29T16:39:59.313Z,38.00
2023-04-29T16:42:27.869Z,36.95
2023-04-29T16:44:56.466Z,34.25
2023-04-29T16:47:25.292Z,38.03
2023-04-29T16:49:55.360Z,37.78
2023-04-29T16:52:24.263Z,37.28
2023-04-29T16:54:52.939Z,36.47
2023-04-29T16:57:22.101Z,33.35
2023-04-29T16:59:50.758Z,34.97
2023-04-29T17:02:19.428Z,32.72
2023-04-29T17:04:48.321Z,36.97
2023-04-29T17:07:19.522Z,35.40
2023-04-29T17:09:48.348Z,34.75
2023-04-29T17:12:16.888Z,33.45
2023-04-29T17:14:45.346Z,34.58
2023-04-29T17:17:13.887Z,28.40
2023-04-29T17:19:42.883Z,33.08
2023-04-29T17:22:11.459Z,33.35
2023-04-29T17:24:44.771Z,32.78
2023-04-29T17:27:13.934Z,26.90
2023-04-29T17:29:42.745Z,36.22
2023-04-29T17:32:13.442Z,30.40
2023-04-29T17:34:42.455Z,31.75
2023-04-29T17:37:11.314Z,30.40
2023-04-29T17:39:41.313Z,28.10
2023-04-29T17:42:09.807Z,27.67
2023-04-29T17:44:38.293Z,28.05
2023-04-29T17:47:09.208Z,28.17
2023-04-29T17:49:37.820Z,32.28
2023-04-29T17:52:06.579Z,32.60
2023-04-29T17:54:35.327Z,29.27
2023-04-29T17:57:05.290Z,26.00
2023-04-29T17:59:33.872Z,25.50
2023-04-29T18:02:02.538Z,25.85
2023-04-29T18:04:31.126Z,25.25
2023-04-29T18:06:59.681Z,29.55
2023-04-29T18:09:28.213Z,25.08
2023-04-29T18:11:56.814Z,24.27
2023-04-29T18:14:28.967Z,24.65
2023-04-29T18:16:58.360Z,25.23
2023-04-29T18:19:27.039Z,24.50
2023-04-29T18:21:58.077Z,24.77
2023-04-29T18:24:27.344Z,25.95
2023-04-29T18:26:57.054Z,24.98
2023-04-29T18:29:27.039Z,27.67
2023-04-29T18:31:55.668Z,25.17
2023-04-29T18:34:24.236Z,25.85
2023-04-29T18:36:53.034Z,20.98
2023-04-29T18:39:21.675Z,25.02
2023-04-29T18:41:50.342Z,22.58
2023-04-29T18:44:19.002Z,27.83
2023-04-29T18:46:48.923Z,24.00
2023-04-29T18:49:18.037Z,27.45
2023-04-29T18:51:47.345Z,29.88
2023-04-29T18:54:17.554Z,27.02
2023-04-29T18:56:48.343Z,26.75
2023-04-29T18:59:19.204Z,29.20
2023-04-29T19:01:49.906Z,31.20
2023-04-29T19:04:18.593Z,30.95
2023-04-29T19:06:47.221Z,31.05
2023-04-29T19:09:16.023Z,31.80
2023-04-29T19:11:44.624Z,30.75
2023-04-29T19:14:15.040Z,33.38
2023-04-29T19:16:43.612Z,31.77
2023-04-29T19:19:13.558Z,33.33
2023-04-29T19:21:42.195Z,29.02
2023-04-29T19:24:10.890Z,31.17
2023-04-29T19:26:40.283Z,31.08
2023-04-29T19:29:08.917Z,32.60
2023-04-29T19:31:38.063Z,32.60
2023-04-29T19:34:06.599Z,35.25
2023-04-29T19:36:37.724Z,32.20
2023-04-29T19:39:06.408Z,33.50
2023-04-29T19:41:35.237Z,30.92
2023-04-29T19:44:03.932Z,38.85
2023-04-29T19:46:32.658Z,30.60
2023-04-29T19:49:01.835Z,36.60
2023-04-29T19:51:30.998Z,41.78
2023-04-29T19:54:01.910Z,35.35
2023-04-29T19:56:30.605Z,37.20
2023-04-29T19:58:59.333Z,35.38
2023-04-29T20:01:27.950Z,34.38
2023-04-29T20:03:56.506Z,34.45
2023-04-29T20:06:25.204Z,33.28
2023-04-29T20:08:54.184Z,32.63
2023-04-29T20:11:24.755Z,32.83
2023-04-29T20:13:53.323Z,35.72
2023-04-29T20:16:23.252Z,35.67
2023-04-29T20:18:51.886Z,36.53
2023-04-29T20:21:20.480Z,40.15
2023-04-29T20:23:49.074Z,34.22
2023-04-29T20:26:19.538Z,33.05
2023-04-29T20:28:49.724Z,36.67
2023-04-29T20:31:18.340Z,35.38
2023-04-29T20:33:46.937Z,34.85
2023-04-29T20:36:15.592Z,37.80
2023-04-29T20:38:44.139Z,37.85
2023-04-29T20:41:12.592Z,39.13
2023-04-29T20:43:41.125Z,33.25
2023-04-29T20:46:13.479Z,37.13
2023-04-29T20:48:42.526Z,35.05
2023-04-29T20:51:12.690Z,33.35
2023-04-29T20:53:41.231Z,38.83
2023-04-29T20:56:11.024Z,39.63
2023-04-29T20:58:39.600Z,41.95
2023-04-29T21:01:08.960Z,40.50
2023-04-29T21:03:39.017Z,40.00
2023-04-29T21:06:07.746Z,43.05
2023-04-29T21:08:36.453Z,35.13
2023-04-29T21:11:07.767Z,36.72
2023-04-29T21:13:36.416Z,40.63
2023-04-29T21:16:05.537Z,38.05
2023-04-29T21:18:34.061Z,36.33
2023-04-29T21:21:04.006Z,41.20
2023-04-29T21:23:32.571Z,41.00
2023-04-29T21:26:01.155Z,40.03
2023-04-29T21:28:29.794Z,40.67
2023-04-29T21:30:59.307Z,40.22
2023-04-29T21:33:28.000Z,39.53
2023-04-29T21:35:56.572Z,38.42
2023-04-29T21:38:26.562Z,38.15
2023-04-29T21:40:55.145Z,41.08
2023-04-29T21:43:23.877Z,42.17
2023-04-29T21:45:54.551Z,42.95
2023-04-29T21:48:23.248Z,39.88
2023-04-29T21:50:51.781Z,39.25
2023-04-29T21:53:20.406Z,42.08
2023-04-29T21:55:50.316Z,43.53
2023-04-29T21:58:20.910Z,40.90
2023-04-29T22:00:58.448Z,40.70
2023-04-29T22:03:27.288Z,38.70
2023-04-29T22:05:56.281Z,39.92
2023-04-29T22:08:25.290Z,40.60
2023-04-29T22:10:55.220Z,39.20
2023-04-29T22:13:23.687Z,43.40
2023-04-29T22:15:52.365Z,45.00
2023-04-29T22:18:21.088Z,37.50
2023-04-29T22:20:49.748Z,42.70
2023-04-29T22:23:18.335Z,39.75
2023-04-29T22:25:46.878Z,39.75
2023-04-29T22:28:16.804Z,38.90
2023-04-29T22:30:47.191Z,42.60
2023-04-29T22:33:16.058Z,42.53
2023-04-29T22:35:44.659Z,41.00
2023-04-29T22:38:13.635Z,41.70
2023-04-29T22:40:42.170Z,42.60
2023-04-29T22:43:10.839Z,45.22
2023-04-29T22:45:40.793Z,39.83
2023-04-29T22:48:09.562Z,41.35
2023-04-29T22:50:39.977Z,45.13
2023-04-29T22:53:08.503Z,43.35
2023-04-29T22:55:37.126Z,38.72
2023-04-29T22:58:05.775Z,43.60
2023-04-29T23:00:34.323Z,45.60
2023-04-29T23:03:04.319Z,44.78
2023-04-29T23:05:33.090Z,42.95
2023-04-29T23:08:02.496Z,44.45
2023-04-29T23:10:33.426Z,42.97
2023-04-29T23:13:02.100Z,40.08
2023-04-29T23:15:31.207Z,43.75
2023-04-29T23:18:00.043Z,43.20
2023-04-29T23:20:30.336Z,45.40
2023-04-29T23:22:58.969Z,40.25
2023-04-29T23:25:27.578Z,41.08
2023-04-29T23:27:56.384Z,40.97
2023-04-29T23:30:24.960Z,40.58
2023-04-29T23:32:53.539Z,40.05
2023-04-29T23:35:22.228Z,38.15
2023-04-29T23:37:52.108Z,41.47
2023-04-29T23:40:20.692Z,40.10
2023-04-29T23:42:49.267Z,40.65
2023-04-29T23:45:18.005Z,39.03
2023-04-29T23:47:46.862Z,39.10
2023-04-29T23:50:15.492Z,40.67
2023-04-29T23:52:44.065Z,43.53
2023-04-29T23:55:13.950Z,41.50
2023-04-29T23:57:42.411Z,45.22
